Time;durP1;ratioP1;P1;durP2;ratioP2;P2;SDS_P1;SDS_P2;PMS_P1;PMS_P2;Temp;Humidity;BMP_temperature;BMP_pressure;BME280_temperature;BME280_humidity;BME280_pressure;Samples;Min_cycle;Max_cycle;Signal;HPM_P1;HPM_P2
2022/10/17 00:02:25;;;;;;;0.00;0.00;;;12.90;99.90;;;;;;5059724;28;20027;-73
2022/10/17 00:04:51;;;;;;;0.20;0.20;;;12.90;99.90;;;;;;5059289;28;20102;-74
2022/10/17 00:07:18;;;;;;;0.13;0.13;;;12.90;99.90;;;;;;5061065;28;20659;-74
2022/10/17 00:09:44;;;;;;;0.15;0.15;;;12.90;99.90;;;;;;5062681;28;20094;-74
2022/10/17 00:12:10;;;;;;;;;;;12.90;99.90;;;;;;5061322;28;20477;-73
2022/10/17 00:14:37;;;;;;;0.73;0.73;;;12.90;99.90;;;;;;5052824;28;19954;-75
2022/10/17 00:17:04;;;;;;;0.13;0.13;;;12.90;99.90;;;;;;5061503;28;20027;-74
2022/10/17 00:19:29;;;;;;;0.00;0.00;;;12.90;99.90;;;;;;5058927;28;20603;-74
2022/10/17 00:21:55;;;;;;;0.00;0.00;;;12.80;99.90;;;;;;5061227;28;20093;-73
2022/10/17 00:24:21;;;;;;;0.00;0.00;;;12.80;99.90;;;;;;5056460;28;20021;-73
2022/10/17 00:26:46;;;;;;;0.00;0.00;;;12.80;99.90;;;;;;5060319;28;20074;-74
2022/10/17 00:29:12;;;;;;;0.10;0.10;;;12.80;99.90;;;;;;5053623;28;20024;-73
2022/10/17 00:31:39;;;;;;;0.63;0.40;;;12.70;99.90;;;;;;5058487;28;20040;-74
2022/10/17 00:34:05;;;;;;;;;;;12.70;99.90;;;;;;5062751;28;20277;-74
2022/10/17 00:36:31;;;;;;;0.30;0.30;;;12.80;99.90;;;;;;5072931;28;19958;-74
2022/10/17 00:38:58;;;;;;;0.45;0.17;;;12.70;99.90;;;;;;5056194;28;20032;-74
2022/10/17 00:41:25;;;;;;;;;;;12.70;99.90;;;;;;5063876;28;20036;-73
2022/10/17 00:43:56;;;;;;;0.10;0.10;;;12.70;99.90;;;;;;5062734;28;19904;-73
2022/10/17 00:46:26;;;;;;;0.45;0.20;;;12.70;99.90;;;;;;5059832;28;20020;-73
2022/10/17 00:48:54;;;;;;;0.00;0.00;;;12.70;99.90;;;;;;5062020;28;20021;-73
2022/10/17 00:51:30;;;;;;;0.00;0.00;;;12.70;99.90;;;;;;5055629;28;20089;-73
2022/10/17 00:53:56;;;;;;;0.00;0.00;;;12.60;99.90;;;;;;5060473;28;20029;-73
2022/10/17 00:56:23;;;;;;;0.10;0.10;;;12.60;99.90;;;;;;5060511;28;20047;-74
2022/10/17 00:58:49;;;;;;;;;;;12.60;99.90;;;;;;5063920;28;20518;-73
2022/10/17 01:01:16;;;;;;;0.60;0.60;;;12.60;99.90;;;;;;5060555;28;19908;-73
2022/10/17 01:03:42;;;;;;;0.00;0.00;;;12.50;99.90;;;;;;5059578;28;20013;-73
2022/10/17 01:06:07;;;;;;;0.00;0.00;;;12.60;99.90;;;;;;5054020;28;20476;-74
2022/10/17 01:08:33;;;;;;;0.20;0.20;;;12.50;99.90;;;;;;5060856;28;20039;-73
2022/10/17 01:11:05;;;;;;;0.00;0.00;;;12.50;99.90;;;;;;5058206;28;20024;-73
2022/10/17 01:14:01;;;;;;;0.30;0.20;;;12.50;99.90;;;;;;5055456;28;20056;-73
2022/10/17 01:16:51;;;;;;;0.00;0.00;;;12.50;99.90;;;;;;5060221;28;20047;-73
2022/10/17 01:19:55;;;;;;;0.00;0.00;;;12.50;99.90;;;;;;5057103;28;20031;-74
2022/10/17 01:22:29;;;;;;;0.00;0.00;;;12.40;99.90;;;;;;5058789;28;20045;-74
2022/10/17 01:25:38;;;;;;;0.60;0.60;;;12.40;99.90;;;;;;5059012;28;20117;-74
2022/10/17 01:28:24;;;;;;;0.30;0.25;;;12.40;99.90;;;;;;5055622;28;20024;-74
2022/10/17 01:31:02;;;;;;;0.25;0.25;;;12.40;99.90;;;;;;5057657;28;20032;-73
2022/10/17 01:33:30;;;;;;;0.00;0.00;;;12.30;99.90;;;;;;5050812;28;20024;-73
2022/10/17 01:36:14;;;;;;;0.00;0.00;;;12.30;99.90;;;;;;5057945;28;20028;-73
2022/10/17 01:39:16;;;;;;;0.00;0.00;;;12.30;99.90;;;;;;5055087;28;20036;-74
2022/10/17 01:41:56;;;;;;;0.20;0.20;;;12.30;99.90;;;;;;5041529;28;20037;-73
2022/10/17 01:44:41;;;;;;;0.00;0.00;;;12.30;99.90;;;;;;5063579;28;20788;-73
2022/10/17 01:47:12;;;;;;;0.28;0.25;;;12.30;99.90;;;;;;5056748;28;20485;-73
2022/10/17 01:49:40;;;;;;;0.03;0.03;;;12.20;99.90;;;;;;5062157;28;20086;-74
2022/10/17 01:52:12;;;;;;;0.00;0.00;;;12.20;99.90;;;;;;5060898;28;20103;-73
2022/10/17 01:54:43;;;;;;;0.15;0.15;;;12.20;99.90;;;;;;5056485;28;20021;-74
2022/10/17 01:57:17;;;;;;;0.00;0.00;;;12.20;99.90;;;;;;5062478;28;20036;-73
2022/10/17 01:59:46;;;;;;;2.97;0.90;;;12.20;99.90;;;;;;5059723;28;20023;-73
2022/10/17 02:02:13;;;;;;;0.35;0.35;;;12.20;99.90;;;;;;5062341;28;20020;-73
2022/10/17 02:04:40;;;;;;;1.10;0.68;;;12.10;99.90;;;;;;5057650;28;20465;-73
2022/10/17 02:07:11;;;;;;;0.22;0.22;;;12.20;99.90;;;;;;5061231;28;20029;-74
2022/10/17 02:09:38;;;;;;;0.47;0.30;;;12.20;99.90;;;;;;5063035;28;20023;-74
2022/10/17 02:12:06;;;;;;;;;;;12.20;99.90;;;;;;5060995;28;20128;-74
2022/10/17 02:14:52;;;;;;;0.82;0.10;;;12.10;99.90;;;;;;5057295;28;20269;-73
2022/10/17 02:17:40;;;;;;;0.10;0.10;;;12.10;99.90;;;;;;5064308;28;20040;-73
2022/10/17 02:20:23;;;;;;;0.95;0.93;;;12.10;99.90;;;;;;5063041;28;20025;-72
2022/10/17 02:23:17;;;;;;;0.00;0.00;;;12.10;99.90;;;;;;5058336;28;20708;-74
2022/10/17 02:25:42;;;;;;;0.45;0.45;;;12.10;99.90;;;;;;5062872;28;20020;-74
2022/10/17 02:28:24;;;;;;;0.13;0.13;;;12.10;99.90;;;;;;5061745;28;20495;-73
2022/10/17 02:31:16;;;;;;;0.40;0.40;;;12.10;99.90;;;;;;5060156;28;20117;-73
2022/10/17 02:33:59;;;;;;;0.00;0.00;;;12.00;99.90;;;;;;5059170;28;20055;-73
2022/10/17 02:36:30;;;;;;;0.00;0.00;;;12.00;99.90;;;;;;5060138;28;20492;-74
2022/10/17 02:38:57;;;;;;;0.00;0.00;;;12.00;99.90;;;;;;5059112;28;20028;-73
2022/10/17 02:41:25;;;;;;;0.20;0.20;;;12.00;99.90;;;;;;5060227;28;20017;-74
2022/10/17 02:43:52;;;;;;;0.30;0.30;;;12.00;99.90;;;;;;5065327;28;20079;-74
2022/10/17 02:46:21;;;;;;;0.20;0.20;;;11.90;99.90;;;;;;5059247;28;20689;-74
2022/10/17 02:48:55;;;;;;;0.05;0.05;;;11.90;99.90;;;;;;5059154;28;20035;-73
2022/10/17 02:51:42;;;;;;;0.00;0.00;;;11.90;99.90;;;;;;5060633;28;20017;-73
2022/10/17 02:54:33;;;;;;;0.00;0.00;;;11.90;99.90;;;;;;5058716;28;20664;-74
2022/10/17 02:57:07;;;;;;;0.00;0.00;;;11.90;99.90;;;;;;5060206;28;20032;-74
2022/10/17 02:59:35;;;;;;;0.00;0.00;;;11.90;99.90;;;;;;5061934;28;20469;-73
2022/10/17 03:02:06;;;;;;;0.00;0.00;;;11.90;99.90;;;;;;5060960;28;20023;-74
2022/10/17 03:04:33;;;;;;;0.20;0.10;;;11.90;99.90;;;;;;5059516;28;20024;-74
2022/10/17 03:06:59;;;;;;;0.00;0.00;;;11.90;99.90;;;;;;5058009;28;20025;-74
2022/10/17 03:09:26;;;;;;;0.00;0.00;;;11.80;99.90;;;;;;5059945;28;20028;-73
2022/10/17 03:11:52;;;;;;;0.08;0.08;;;11.80;99.90;;;;;;5058472;28;20028;-74
2022/10/17 03:14:21;;;;;;;0.03;0.03;;;11.80;99.90;;;;;;5058223;28;20021;-73
2022/10/17 03:16:46;;;;;;;0.00;0.00;;;11.80;99.90;;;;;;5057687;28;20589;-73
2022/10/17 03:19:12;;;;;;;0.10;0.10;;;11.80;99.90;;;;;;5059601;28;20103;-74
2022/10/17 03:21:37;;;;;;;0.10;0.10;;;11.80;99.90;;;;;;5058867;28;20120;-73
2022/10/17 03:24:04;;;;;;;0.03;0.03;;;11.80;99.90;;;;;;5059601;28;20491;-74
2022/10/17 03:26:30;;;;;;;0.00;0.00;;;11.80;99.90;;;;;;5062390;28;20024;-74
2022/10/17 03:28:56;;;;;;;0.00;0.00;;;11.70;99.90;;;;;;5061235;28;20086;-74
2022/10/17 03:31:23;;;;;;;0.25;0.25;;;11.80;99.90;;;;;;5056669;28;20071;-74
2022/10/17 03:33:49;;;;;;;;;;;11.80;99.90;;;;;;5061627;28;20120;-73
2022/10/17 03:36:16;;;;;;;0.60;0.13;;;11.70;99.90;;;;;;5059607;28;20360;-74
2022/10/17 03:38:42;;;;;;;0.13;0.13;;;11.70;99.90;;;;;;5063050;28;20021;-74
2022/10/17 03:41:09;;;;;;;0.63;0.43;;;11.70;99.90;;;;;;5053981;28;20020;-74
2022/10/17 03:43:35;;;;;;;0.00;0.00;;;11.70;99.90;;;;;;5060275;28;20020;-74
2022/10/17 03:46:01;;;;;;;0.32;0.32;;;11.70;99.90;;;;;;5064301;28;20076;-74
2022/10/17 03:48:31;;;;;;;0.20;0.20;;;11.70;99.90;;;;;;5060380;28;20127;-73
2022/10/17 03:51:04;;;;;;;0.08;0.08;;;11.70;99.90;;;;;;5062433;28;20481;-73
2022/10/17 03:53:30;;;;;;;0.00;0.00;;;11.70;99.90;;;;;;5067018;28;20472;-74
2022/10/17 03:56:07;;;;;;;0.00;0.00;;;11.70;99.90;;;;;;5059783;28;20035;-74
2022/10/17 03:58:32;;;;;;;0.40;0.30;;;11.70;99.90;;;;;;5064314;28;20036;-73
2022/10/17 04:01:06;;;;;;;0.00;0.00;;;11.70;99.90;;;;;;5060507;28;20109;-74
2022/10/17 04:03:34;;;;;;;0.00;0.00;;;11.70;99.90;;;;;;5059510;28;20688;-74
2022/10/17 04:06:00;;;;;;;0.00;0.00;;;11.70;99.90;;;;;;5060391;28;20021;-74
2022/10/17 04:08:29;;;;;;;0.00;0.00;;;11.70;99.90;;;;;;5051202;28;20467;-74
2022/10/17 04:11:03;;;;;;;0.20;0.10;;;11.60;99.90;;;;;;5061021;28;20035;-74
2022/10/17 04:13:30;;;;;;;0.35;0.22;;;11.60;99.90;;;;;;5058335;28;20028;-74
2022/10/17 04:16:01;;;;;;;0.00;0.00;;;11.70;99.90;;;;;;5059978;28;20532;-74
2022/10/17 04:18:29;;;;;;;0.00;0.00;;;11.70;99.90;;;;;;5061382;28;20028;-74
2022/10/17 04:20:54;;;;;;;0.15;0.15;;;11.60;99.90;;;;;;5058530;28;20454;-73
2022/10/17 04:23:20;;;;;;;0.00;0.00;;;11.60;99.90;;;;;;5058996;28;20077;-73
2022/10/17 04:25:47;;;;;;;0.27;0.27;;;11.60;99.90;;;;;;5058737;28;20031;-74
2022/10/17 04:28:12;;;;;;;;;;;11.60;99.90;;;;;;5061943;28;20255;-74
2022/10/17 04:30:39;;;;;;;0.00;0.00;;;11.60;99.90;;;;;;5060265;28;19904;-74
2022/10/17 04:33:05;;;;;;;0.38;0.35;;;11.60;99.90;;;;;;5057189;28;20708;-74
2022/10/17 04:35:31;;;;;;;0.10;0.10;;;11.50;99.90;;;;;;5058853;28;20055;-74
2022/10/17 04:37:56;;;;;;;0.50;0.28;;;11.50;99.90;;;;;;5061470;28;20731;-74
2022/10/17 04:40:22;;;;;;;0.00;0.00;;;11.50;99.90;;;;;;5060289;28;20033;-74
2022/10/17 04:42:48;;;;;;;0.20;0.10;;;11.50;99.90;;;;;;5053373;28;20023;-74
2022/10/17 04:45:14;;;;;;;0.30;0.30;;;11.50;99.90;;;;;;5056729;28;20027;-73
2022/10/17 04:47:41;;;;;;;;;;;11.50;99.90;;;;;;5061100;28;20055;-73
2022/10/17 04:50:07;;;;;;;0.32;0.32;;;11.50;99.90;;;;;;5059467;28;19994;-73
2022/10/17 04:52:36;;;;;;;0.10;0.10;;;11.40;99.90;;;;;;5060199;28;20388;-74
2022/10/17 04:55:02;;;;;;;0.10;0.10;;;11.50;99.90;;;;;;5061567;28;20032;-74
2022/10/17 04:57:32;;;;;;;;;;;11.50;99.90;;;;;;5054550;28;20025;-73
2022/10/17 04:59:59;;;;;;;0.00;0.00;;;11.50;99.90;;;;;;5060896;28;19916;-74
2022/10/17 05:02:25;;;;;;;0.00;0.00;;;11.50;99.90;;;;;;5059445;28;20078;-73
2022/10/17 05:04:51;;;;;;;0.00;0.00;;;11.50;99.90;;;;;;5053007;28;21410;-74
2022/10/17 05:07:17;;;;;;;0.47;0.47;;;11.50;99.90;;;;;;5058382;28;20024;-74
2022/10/17 05:09:43;;;;;;;0.20;0.20;;;11.50;99.90;;;;;;5054017;28;20119;-74
2022/10/17 05:12:08;;;;;;;0.00;0.00;;;11.50;99.90;;;;;;5060844;28;20035;-74
2022/10/17 05:14:35;;;;;;;0.13;0.13;;;11.50;99.90;;;;;;5061366;28;20025;-74
2022/10/17 05:17:01;;;;;;;;;;;11.60;99.90;;;;;;5064879;28;20027;-73
2022/10/17 05:19:26;;;;;;;0.20;0.20;;;11.60;99.90;;;;;;5074216;28;20347;-73
2022/10/17 05:21:52;;;;;;;0.00;0.00;;;11.60;99.90;;;;;;5066266;28;20107;-74
2022/10/17 05:24:19;;;;;;;0.53;0.33;;;11.60;99.90;;;;;;5057658;28;20173;-73
2022/10/17 05:26:45;;;;;;;0.00;0.00;;;11.50;99.90;;;;;;5067798;28;20029;-73
2022/10/17 05:29:11;;;;;;;;;;;11.60;99.90;;;;;;5058874;28;20028;-73
2022/10/17 05:31:36;;;;;;;0.00;0.00;;;11.60;99.90;;;;;;5069155;28;19972;-73
2022/10/17 05:34:03;;;;;;;0.00;0.00;;;11.70;99.90;;;;;;5067412;28;20377;-73
2022/10/17 05:36:29;;;;;;;0.00;0.00;;;11.70;99.90;;;;;;5060969;28;20110;-74
2022/10/17 05:38:58;;;;;;;;;;;11.70;99.90;;;;;;5065808;28;20032;-74
2022/10/17 05:41:24;;;;;;;0.00;0.00;;;11.80;99.90;;;;;;5064812;28;19943;-74
2022/10/17 05:43:50;;;;;;;0.00;0.00;;;11.90;99.90;;;;;;5061648;28;20464;-74
2022/10/17 05:46:17;;;;;;;0.00;0.00;;;12.00;99.90;;;;;;5060159;28;20586;-74
2022/10/17 05:48:44;;;;;;;0.20;0.20;;;12.20;99.90;;;;;;5061105;28;20032;-74
2022/10/17 05:51:11;;;;;;;0.00;0.00;;;12.40;99.90;;;;;;5063353;28;20025;-74
2022/10/17 05:53:39;;;;;;;0.88;0.30;;;12.70;99.90;;;;;;5064416;28;20081;-74
2022/10/17 05:56:08;;;;;;;0.70;0.70;;;12.90;99.90;;;;;;5062285;28;20043;-74
2022/10/17 05:58:35;;;;;;;0.50;0.50;;;13.30;99.90;;;;;;5064399;28;20028;-74
2022/10/17 06:01:04;;;;;;;0.00;0.00;;;13.60;99.90;;;;;;5062138;28;20612;-74
2022/10/17 06:03:33;;;;;;;0.10;0.10;;;14.10;99.90;;;;;;5060768;28;20052;-74
2022/10/17 06:06:17;;;;;;;0.00;0.00;;;14.40;99.90;;;;;;5060688;28;20024;-74
2022/10/17 06:08:44;;;;;;;0.10;0.10;;;14.70;99.90;;;;;;5058942;28;20021;-75
2022/10/17 06:11:11;;;;;;;0.22;0.20;;;14.80;99.90;;;;;;5061980;28;20032;-74
2022/10/17 06:13:38;;;;;;;0.00;0.00;;;15.00;99.90;;;;;;5062740;28;20024;-74
2022/10/17 06:16:05;;;;;;;0.00;0.00;;;15.00;99.90;;;;;;5062031;28;20024;-74
2022/10/17 06:18:31;;;;;;;;;;;14.80;99.90;;;;;;5062893;28;20024;-74
2022/10/17 06:21:05;;;;;;;0.00;0.00;;;15.00;99.90;;;;;;5062233;28;19904;-74
2022/10/17 06:23:31;;;;;;;0.00;0.00;;;15.20;99.90;;;;;;5064312;28;20016;-74
2022/10/17 06:26:00;;;;;;;0.10;0.10;;;15.00;99.90;;;;;;5060355;28;20469;-74
2022/10/17 06:28:26;;;;;;;0.00;0.00;;;15.40;99.90;;;;;;5061395;28;20108;-74
2022/10/17 06:30:53;;;;;;;4.38;0.30;;;15.30;99.90;;;;;;5063111;28;20115;-74
2022/10/17 06:33:20;;;;;;;0.22;0.22;;;15.70;99.90;;;;;;5060336;28;20074;-75
2022/10/17 06:35:53;;;;;;;0.10;0.08;;;16.20;99.90;;;;;;5062590;28;20047;-74
2022/10/17 06:38:21;;;;;;;0.10;0.10;;;16.50;99.90;;;;;;5060866;28;20013;-74
2022/10/17 06:40:46;;;;;;;0.30;0.20;;;16.80;99.90;;;;;;5056781;28;20025;-75
2022/10/17 06:43:13;;;;;;;0.00;0.00;;;17.50;99.90;;;;;;5060869;28;20024;-75
2022/10/17 06:45:39;;;;;;;0.10;0.10;;;18.20;99.90;;;;;;5059176;28;20128;-74
2022/10/17 06:48:05;;;;;;;0.00;0.00;;;18.70;99.90;;;;;;5058561;28;20123;-75
2022/10/17 06:50:31;;;;;;;0.32;0.32;;;19.10;99.90;;;;;;5062784;28;20098;-74
2022/10/17 06:52:58;;;;;;;0.52;0.30;;;19.20;99.90;;;;;;5062162;28;20445;-74
2022/10/17 06:55:23;;;;;;;0.00;0.00;;;19.30;99.90;;;;;;5061595;28;20355;-75
2022/10/17 06:57:54;;;;;;;0.20;0.20;;;19.90;99.90;;;;;;5062121;28;20670;-74
2022/10/17 07:00:20;;;;;;;0.00;0.00;;;20.20;99.90;;;;;;5056572;28;20344;-75
2022/10/17 07:02:45;;;;;;;0.40;0.40;;;20.50;99.90;;;;;;5062312;28;20051;-75
2022/10/17 07:05:12;;;;;;;0.03;0.03;;;20.50;99.90;;;;;;5062729;28;20183;-74
2022/10/17 07:07:37;;;;;;;0.10;0.10;;;20.60;99.90;;;;;;5063874;28;20697;-74
2022/10/17 07:10:07;;;;;;;0.98;0.85;;;20.60;99.90;;;;;;5061580;28;20115;-74
2022/10/17 07:12:34;;;;;;;0.17;0.17;;;19.60;99.90;;;;;;5055110;28;20024;-74
2022/10/17 07:15:03;;;;;;;0.52;0.38;;;19.70;99.90;;;;;;5058695;28;20111;-74
2022/10/17 07:17:30;;;;;;;0.45;0.30;;;20.60;99.90;;;;;;5061102;28;20051;-72
2022/10/17 07:19:59;;;;;;;0.20;0.20;;;21.80;99.90;;;;;;5061670;28;20028;-74
2022/10/17 07:22:25;;;;;;;0.00;0.00;;;22.30;99.90;;;;;;5059648;28;20032;-72
2022/10/17 07:24:50;;;;;;;0.10;0.10;;;22.50;99.90;;;;;;5062495;28;20033;-74
2022/10/17 07:27:19;;;;;;;0.10;0.10;;;22.50;99.90;;;;;;5061752;28;20025;-74
2022/10/17 07:29:45;;;;;;;0.00;0.00;;;21.90;99.90;;;;;;5062275;28;20027;-74
2022/10/17 07:32:11;;;;;;;0.75;0.65;;;21.60;99.90;;;;;;5061782;28;20021;-74
2022/10/17 07:34:39;;;;;;;0.30;0.20;;;21.60;99.90;;;;;;5057625;28;20027;-73
2022/10/17 07:37:06;;;;;;;0.03;0.03;;;21.10;99.90;;;;;;5056941;28;20028;-74
2022/10/17 07:39:31;;;;;;;0.00;0.00;;;21.40;99.90;;;;;;5058159;28;20426;-74
2022/10/17 07:41:58;;;;;;;0.00;0.00;;;21.60;99.90;;;;;;5060569;28;20044;-74
2022/10/17 07:44:24;;;;;;;0.00;0.00;;;20.90;99.90;;;;;;5061064;28;20027;-74
2022/10/17 07:46:49;;;;;;;0.10;0.00;;;21.20;99.90;;;;;;5057355;28;20032;-74
2022/10/17 07:49:16;;;;;;;0.10;0.10;;;21.70;99.90;;;;;;5065303;28;20477;-74
2022/10/17 07:51:44;;;;;;;0.00;0.00;;;22.30;99.90;;;;;;5056113;28;20024;-74
2022/10/17 07:54:10;;;;;;;0.00;0.00;;;23.00;99.90;;;;;;5062994;28;20033;-74
2022/10/17 07:56:36;;;;;;;0.00;0.00;;;23.50;99.20;;;;;;5057731;28;20028;-72
2022/10/17 07:59:03;;;;;;;0.82;0.63;;;24.00;98.30;;;;;;5057463;28;20040;-72
2022/10/17 08:01:32;;;;;;;0.95;0.65;;;24.50;96.80;;;;;;5059712;28;20366;-75
2022/10/17 08:03:59;;;;;;;0.57;0.30;;;23.50;97.90;;;;;;5064545;28;20462;-74
2022/10/17 08:06:24;;;;;;;0.00;0.00;;;24.30;97.20;;;;;;5059748;28;20033;-74
2022/10/17 08:08:50;;;;;;;0.13;0.13;;;24.50;96.40;;;;;;5057693;28;20082;-74
2022/10/17 08:11:17;;;;;;;0.50;0.50;;;24.30;96.70;;;;;;5062103;28;20040;-74
2022/10/17 08:13:42;;;;;;;0.00;0.00;;;24.50;96.30;;;;;;5052816;28;20052;-75
2022/10/17 08:16:10;;;;;;;0.00;0.00;;;24.40;96.60;;;;;;5060317;28;20051;-73
2022/10/17 08:18:39;;;;;;;0.22;0.22;;;25.10;95.80;;;;;;5060341;28;20069;-73
2022/10/17 08:21:07;;;;;;;0.40;0.40;;;26.20;93.60;;;;;;5059573;28;20028;-73
2022/10/17 08:23:33;;;;;;;0.50;0.50;;;24.90;94.30;;;;;;5061065;28;20487;-73
2022/10/17 08:26:02;;;;;;;0.08;0.05;;;25.70;94.10;;;;;;5053210;28;20020;-73
2022/10/17 08:28:28;;;;;;;0.45;0.45;;;26.00;93.10;;;;;;5058189;28;20029;-71
2022/10/17 08:31:04;;;;;;;;;;;26.40;92.30;;;;;;5058089;28;20040;-73
2022/10/17 08:33:32;;;;;;;0.08;0.08;;;24.80;93.30;;;;;;5061469;28;19904;-76
2022/10/17 08:35:59;;;;;;;0.68;0.65;;;24.30;94.80;;;;;;5061228;28;20025;-76
2022/10/17 08:38:27;;;;;;;0.00;0.00;;;25.10;94.40;;;;;;5056183;28;20107;-75
2022/10/17 08:41:00;;;;;;;0.10;0.10;;;25.10;93.90;;;;;;5059864;28;20020;-74
2022/10/17 08:43:49;;;;;;;0.25;0.25;;;25.00;93.90;;;;;;5056395;28;20105;-73
2022/10/17 08:46:15;;;;;;;1.60;1.35;;;26.30;93.00;;;;;;5056348;28;20028;-73
2022/10/17 08:48:43;;;;;;;0.00;0.00;;;27.40;91.20;;;;;;5058583;28;20028;-73
2022/10/17 08:51:26;;;;;;;0.55;0.47;;;27.70;90.00;;;;;;5060583;28;20028;-72
2022/10/17 08:54:02;;;;;;;0.60;0.60;;;28.00;88.50;;;;;;5053779;28;20036;-72
2022/10/17 08:56:42;;;;;;;0.32;0.25;;;26.30;88.40;;;;;;5060006;28;20028;-74
2022/10/17 08:59:13;;;;;;;0.70;0.32;;;25.90;91.40;;;;;;5053742;28;20050;-72
2022/10/17 09:01:47;;;;;;;0.00;0.00;;;26.70;90.80;;;;;;5061259;28;20115;-74
2022/10/17 09:04:22;;;;;;;0.03;0.03;;;26.40;90.70;;;;;;5059133;28;20020;-74
2022/10/17 09:07:09;;;;;;;0.70;0.22;;;26.50;90.80;;;;;;5055623;28;20020;-71
2022/10/17 09:09:39;;;;;;;1.90;1.33;;;27.70;89.90;;;;;;5059927;28;20027;-73
2022/10/17 09:12:23;;;;;;;0.30;0.28;;;27.70;87.10;;;;;;5057432;28;20028;-73
2022/10/17 09:14:53;;;;;;;0.38;0.38;;;27.60;88.40;;;;;;5053606;28;20028;-74
2022/10/17 09:17:28;;;;;;;0.22;0.22;;;27.80;88.10;;;;;;5061369;28;20359;-73
2022/10/17 09:20:03;;;;;;;0.22;0.22;;;26.90;88.40;;;;;;5055855;28;20074;-74
2022/10/17 09:22:38;;;;;;;1.45;0.80;;;26.70;89.40;;;;;;5059849;28;20040;-73
2022/10/17 09:25:11;;;;;;;0.00;0.00;;;26.60;90.30;;;;;;5057089;28;20384;-74
2022/10/17 09:27:47;;;;;;;0.10;0.00;;;27.40;89.20;;;;;;5052728;28;20044;-71
2022/10/17 09:30:32;;;;;;;0.00;0.00;;;28.90;86.50;;;;;;5059255;28;20101;-71
2022/10/17 09:32:58;;;;;;;0.17;0.17;;;29.20;83.80;;;;;;5053217;28;20062;-71
2022/10/17 09:35:24;;;;;;;;;;;29.20;82.70;;;;;;5060639;28;20056;-73
2022/10/17 09:37:52;;;;;;;1.63;0.38;;;28.60;83.90;;;;;;5058955;28;19912;-74
2022/10/17 09:40:31;;;;;;;0.22;0.22;;;29.00;82.60;;;;;;5057724;28;20028;-73
2022/10/17 09:42:58;;;;;;;0.38;0.38;;;28.00;85.00;;;;;;5057775;28;20020;-73
2022/10/17 09:45:29;;;;;;;0.28;0.10;;;29.60;82.40;;;;;;5057697;28;20020;-71
2022/10/17 09:48:04;;;;;;;0.10;0.10;;;30.00;81.70;;;;;;5059880;28;20028;-73
2022/10/17 09:50:31;;;;;;;0.30;0.30;;;29.00;80.70;;;;;;5055902;28;20508;-73
2022/10/17 09:53:12;;;;;;;0.00;0.00;;;28.50;83.00;;;;;;5057860;28;20085;-71
2022/10/17 09:56:00;;;;;;;0.98;0.40;;;29.70;81.40;;;;;;5053152;28;20032;-72
2022/10/17 09:58:53;;;;;;;1.65;0.93;;;29.60;80.90;;;;;;5058675;28;20041;-73
2022/10/17 10:01:25;;;;;;;1.63;0.47;;;29.10;82.10;;;;;;5055263;28;20058;-71
2022/10/17 10:04:26;;;;;;;0.30;0.20;;;30.60;79.60;;;;;;5057423;28;20032;-71
2022/10/17 10:07:04;;;;;;;0.08;0.08;;;32.10;76.00;;;;;;5020752;28;20030;-70
2022/10/17 10:09:34;;;;;;;0.05;0.05;;;32.60;73.10;;;;;;5048056;28;20123;-71
2022/10/17 10:12:16;;;;;;;0.00;0.00;;;32.30;72.70;;;;;;5042765;28;20025;-70
2022/10/17 10:14:42;;;;;;;0.52;0.52;;;31.40;73.50;;;;;;5060495;28;20466;-70
2022/10/17 10:17:28;;;;;;;2.55;0.15;;;32.70;73.60;;;;;;5043884;28;20079;-71
2022/10/17 10:19:55;;;;;;;0.00;0.00;;;33.50;70.30;;;;;;5042044;28;20021;-70
2022/10/17 10:22:25;;;;;;;4.75;1.38;;;34.10;69.30;;;;;;5037833;28;20026;-71
2022/10/17 10:25:15;;;;;;;0.68;0.68;;;32.80;69.60;;;;;;5040723;28;20074;-72
2022/10/17 10:27:44;;;;;;;0.10;0.10;;;30.60;73.60;;;;;;5042612;28;20055;-73
2022/10/17 10:30:18;;;;;;;0.00;0.00;;;30.70;74.30;;;;;;5041462;28;20718;-73
2022/10/17 10:32:47;;;;;;;1.88;1.00;;;31.60;72.40;;;;;;5039647;28;20102;-73
2022/10/17 10:35:20;;;;;;;1.00;0.95;;;31.20;72.80;;;;;;5037799;28;20154;-73
2022/10/17 10:37:57;;;;;;;0.35;0.10;;;31.20;73.00;;;;;;5040769;28;20040;-73
2022/10/17 10:40:30;;;;;;;2.30;0.30;;;31.10;72.60;;;;;;5057513;28;20040;-73
2022/10/17 10:42:57;;;;;;;0.10;0.10;;;31.10;72.60;;;;;;5043015;28;20113;-73
2022/10/17 10:45:27;;;;;;;0.63;0.20;;;31.00;71.50;;;;;;5038729;28;20021;-73
2022/10/17 10:48:16;;;;;;;0.20;0.20;;;29.10;75.60;;;;;;5058761;28;20025;-73
2022/10/17 10:51:06;;;;;;;0.00;0.00;;;27.90;78.50;;;;;;5042662;28;20013;-73
2022/10/17 10:53:45;;;;;;;0.00;0.00;;;26.80;81.00;;;;;;5031159;28;20029;-74
2022/10/17 10:56:39;;;;;;;0.75;0.75;;;25.40;84.30;;;;;;5038072;28;20182;-74
2022/10/17 10:59:18;;;;;;;0.20;0.20;;;24.30;89.10;;;;;;5051285;28;20025;-74
2022/10/17 11:02:19;;;;;;;0.20;0.20;;;24.10;91.40;;;;;;5056360;28;20081;-74
2022/10/17 11:05:09;;;;;;;0.57;0.35;;;23.80;92.30;;;;;;5044970;28;20061;-75
2022/10/17 11:07:48;;;;;;;0.20;0.20;;;23.30;93.50;;;;;;5042596;28;20027;-75
2022/10/17 11:10:24;;;;;;;0.57;0.57;;;23.10;94.10;;;;;;5038744;28;20159;-75
2022/10/17 11:13:09;;;;;;;0.52;0.43;;;23.20;94.80;;;;;;5052590;28;20033;-75
2022/10/17 11:16:01;;;;;;;0.32;0.10;;;23.30;94.80;;;;;;5037642;28;20112;-75
2022/10/17 11:18:41;;;;;;;0.00;0.00;;;23.30;95.10;;;;;;5040765;28;20634;-74
2022/10/17 11:21:14;;;;;;;0.00;0.00;;;23.40;95.30;;;;;;5054634;28;20033;-75
2022/10/17 11:23:55;;;;;;;10.77;1.17;;;23.40;95.40;;;;;;5035257;28;20083;-75
2022/10/17 11:26:30;;;;;;;0.30;0.30;;;23.40;95.50;;;;;;5034003;28;20071;-73
2022/10/17 11:29:00;;;;;;;0.20;0.20;;;23.40;95.60;;;;;;5054151;28;20769;-75
2022/10/17 11:31:30;;;;;;;0.50;0.50;;;23.50;95.40;;;;;;5049122;28;20229;-73
2022/10/17 11:34:03;;;;;;;0.98;0.57;;;23.60;95.70;;;;;;5055858;28;20064;-75
2022/10/17 11:36:34;;;;;;;0.22;0.20;;;23.10;95.90;;;;;;5054671;28;20032;-75
2022/10/17 11:39:08;;;;;;;0.00;0.00;;;22.80;97.00;;;;;;5039168;28;20020;-75
2022/10/17 11:41:49;;;;;;;1.38;0.40;;;22.90;97.40;;;;;;5035299;28;20092;-76
2022/10/17 11:44:20;;;;;;;0.35;0.35;;;22.80;96.90;;;;;;5037601;28;20101;-75
2022/10/17 11:46:53;;;;;;;0.73;0.30;;;22.70;97.40;;;;;;5056821;28;20485;-75
2022/10/17 11:49:32;;;;;;;0.40;0.40;;;22.90;97.30;;;;;;5039998;28;20119;-75
2022/10/17 11:52:37;;;;;;;0.70;0.47;;;22.90;97.10;;;;;;5042171;28;20486;-75
2022/10/17 11:55:30;;;;;;;0.45;0.38;;;22.90;96.90;;;;;;5007347;28;20414;-75
2022/10/17 11:58:34;;;;;;;1.45;0.63;;;23.00;97.20;;;;;;5052391;28;20040;-75
2022/10/17 12:01:33;;;;;;;0.00;0.00;;;23.00;97.00;;;;;;5036389;28;20384;-75
2022/10/17 12:04:13;;;;;;;0.25;0.10;;;22.90;96.90;;;;;;5038647;28;20457;-75
2022/10/17 12:07:14;;;;;;;0.08;0.08;;;22.90;97.70;;;;;;5040293;28;20025;-75
2022/10/17 12:10:32;;;;;;;0.82;0.82;;;22.90;97.10;;;;;;5059201;28;20112;-75
2022/10/17 12:13:27;;;;;;;1.00;0.47;;;22.90;97.00;;;;;;5027972;28;20128;-75
2022/10/17 12:15:57;;;;;;;0.00;0.00;;;23.00;97.20;;;;;;5037434;28;20088;-75
2022/10/17 12:18:26;;;;;;;1.05;0.52;;;23.10;96.90;;;;;;5042167;28;20490;-71
2022/10/17 12:20:58;;;;;;;2.08;0.40;;;23.10;96.80;;;;;;5036588;28;20494;-71
2022/10/17 12:23:30;;;;;;;0.32;0.32;;;23.00;97.20;;;;;;5039285;28;20590;-71
2022/10/17 12:26:01;;;;;;;0.47;0.38;;;23.00;97.00;;;;;;5036661;28;20017;-72
2022/10/17 12:28:31;;;;;;;2.15;0.45;;;22.90;97.00;;;;;;5039147;28;20096;-72
2022/10/17 12:31:02;;;;;;;0.55;0.45;;;22.90;97.10;;;;;;5034696;28;20031;-72
2022/10/17 12:33:36;;;;;;;1.08;0.77;;;22.90;97.10;;;;;;5039344;28;20332;-72
2022/10/17 12:36:20;;;;;;;0.82;0.25;;;23.00;97.40;;;;;;5035161;28;20020;-72
2022/10/17 12:38:48;;;;;;;0.98;0.95;;;23.00;97.00;;;;;;5035530;28;20024;-73
2022/10/17 12:41:14;;;;;;;0.20;0.20;;;23.10;96.70;;;;;;5054764;28;20027;-71
2022/10/17 12:43:47;;;;;;;0.73;0.25;;;23.00;96.70;;;;;;5038260;28;20108;-72
2022/10/17 12:46:39;;;;;;;0.38;0.38;;;23.00;96.70;;;;;;5036932;28;20021;-72
2022/10/17 12:49:37;;;;;;;1.42;1.08;;;23.00;96.90;;;;;;5057360;28;20100;-71
2022/10/17 12:52:45;;;;;;;0.55;0.55;;;22.90;96.40;;;;;;5041906;28;20032;-72
2022/10/17 12:55:18;;;;;;;0.00;0.00;;;22.80;96.30;;;;;;5050693;28;20428;-72
2022/10/17 12:57:55;;;;;;;1.02;0.43;;;22.70;96.30;;;;;;5039773;28;20052;-72
2022/10/17 13:00:30;;;;;;;;;;;22.80;96.50;;;;;;5040460;28;20009;-74
2022/10/17 13:03:15;;;;;;;0.73;0.40;;;22.90;96.50;;;;;;5037825;28;19912;-72
2022/10/17 13:05:47;;;;;;;0.17;0.17;;;22.90;95.90;;;;;;5038611;28;20159;-72
2022/10/17 13:08:26;;;;;;;0.05;0.05;;;22.80;96.30;;;;;;5040816;28;20106;-72
2022/10/17 13:10:53;;;;;;;0.22;0.22;;;22.80;95.80;;;;;;5036295;28;20052;-72
2022/10/17 13:13:23;;;;;;;0.20;0.20;;;22.80;95.70;;;;;;5038586;28;20537;-72
2022/10/17 13:15:51;;;;;;;0.05;0.05;;;22.70;95.50;;;;;;5038869;28;20075;-72
2022/10/17 13:18:21;;;;;;;0.00;0.00;;;22.70;96.00;;;;;;5034748;28;20394;-72